シドニー の空港の天気 - METARとTAF

シドニー国際空港 ( YSSY / SYD ) - オーストラリア ニューサウスウェールズ州、Mascot
飛行場実況気象(Metar)
観測時間01/17 19:00 AEDT (01/17 08:00 UTC)
風向・風速東南東 6m/s
視程10km以上
天気現象
少しの雲 雲底高度 1040m
全天の8割程度の雲 雲底高度 8530m
気温22℃
湿度57%
気圧1014hPa
METARYSSY 170800Z 11011KT 9999 FEW034 BKN280 22/13 Q1014
過去の天気等 Google飛行場航空写真 Wunderground天気予報

過去48時間のMETAR

飛行場予報(TAF)
発表時間: 1/17 16:01 AEDT (1/17 05:01 UTC)
予報対象時間: 17日17時 AEDT ~ 18日23時 AEDT
風向・風速南東 7m/s
視程10km以上
全天の4割程度の雲 雲底高度 1070m
18日2時 AEDT から
風向・風速西北西 3m/s
視程10km以上
全天の4割程度の雲 雲底高度 910m
18日8時 AEDT から
風向・風速北北西 5m/s
視程10km以上
なし
18日14時 AEDT から
風向・風速北東 9m/s
視程10km以上
なし
TAF YSSY 170501Z 1706/1812 13014KT 9999 SCT035
FM171500 30005KT 9999 SCT030
FM172100 33010KT CAVOK
FM180300 05017KT CAVOK